Time;durP1;ratioP1;P1;durP2;ratioP2;P2;SDS_P1;SDS_P2;PMS_P1;PMS_P2;Temp;Humidity;BMP_temperature;BMP_pressure;BME280_temperature;BME280_humidity;BME280_pressure;Samples;Min_cycle;Max_cycle;Signal;HPM_P1;HPM_P2
2023/10/27 00:01:03;;;;;;;6.57;5.13;;;;;;;10.39;68.36;99196.19;5002391;28;97005;-52
2023/10/27 00:03:28;;;;;;;5.17;4.47;;;;;;;10.38;68.49;99189.16;5001050;28;97873;-52
2023/10/27 00:05:54;;;;;;;5.43;4.57;;;;;;;10.35;68.41;99184.72;5003257;28;97178;-52
2023/10/27 00:08:19;;;;;;;7.83;5.70;;;;;;;10.36;68.68;99186.22;5002330;28;96677;-52
2023/10/27 00:10:45;;;;;;;7.30;4.93;;;;;;;10.36;68.52;99192.50;5002158;28;96808;-52
2023/10/27 00:13:10;;;;;;;6.43;5.13;;;;;;;10.37;68.50;99188.41;5000169;28;99073;-52
2023/10/27 00:15:35;;;;;;;14.43;6.20;;;;;;;10.39;68.42;99174.06;5002694;28;97813;-52
2023/10/27 00:18:01;;;;;;;12.27;6.17;;;;;;;10.34;68.36;99172.22;5002190;28;97659;-52
2023/10/27 00:20:26;;;;;;;8.10;5.20;;;;;;;10.32;68.54;99172.78;5002833;28;97019;-52
2023/10/27 00:22:51;;;;;;;7.43;5.03;;;;;;;10.34;68.66;99175.72;5002540;28;97170;-52
2023/10/27 00:25:17;;;;;;;9.30;5.60;;;;;;;10.37;68.65;99173.88;5000955;28;101270;-52
2023/10/27 00:27:42;;;;;;;7.70;4.73;;;;;;;10.37;68.28;99165.59;5001614;28;97746;-52
2023/10/27 00:30:09;;;;;;;11.30;5.57;;;;;;;10.39;68.60;99165.78;5002071;28;98859;-52
2023/10/27 00:32:36;;;;;;;13.90;5.87;;;;;;;10.41;68.44;99163.19;5002149;28;97625;-52
2023/10/27 00:35:01;;;;;;;12.83;6.10;;;;;;;10.42;68.41;99159.13;4999698;28;97318;-52
2023/10/27 00:37:26;;;;;;;9.90;6.20;;;;;;;10.42;68.40;99151.56;5002641;28;97809;-52
2023/10/27 00:39:52;;;;;;;11.37;6.17;;;;;;;10.43;68.40;99144.03;5001638;28;96974;-52
2023/10/27 00:42:17;;;;;;;10.10;6.00;;;;;;;10.44;68.40;99139.97;5000999;28;97462;-52
2023/10/27 00:44:43;;;;;;;8.50;5.67;;;;;;;10.45;68.56;99130.38;5000918;28;108065;-53
2023/10/27 00:47:08;;;;;;;7.60;5.97;;;;;;;10.45;68.35;99131.13;4999934;28;97094;-52
2023/10/27 00:49:34;;;;;;;11.73;6.13;;;;;;;10.45;68.40;99127.63;5001821;28;96679;-52
2023/10/27 00:52:00;;;;;;;9.83;6.70;;;;;;;10.44;68.42;99131.66;5000880;28;96765;-52
2023/10/27 00:54:26;;;;;;;11.37;6.60;;;;;;;10.43;68.31;99144.78;5001377;28;97096;-52
2023/10/27 00:56:52;;;;;;;8.00;5.80;;;;;;;10.44;68.26;99145.50;5000401;28;97485;-52
2023/10/27 00:59:18;;;;;;;7.73;5.77;;;;;;;10.44;68.33;99142.72;5000658;28;96972;-52
2023/10/27 01:01:43;;;;;;;12.53;6.00;;;;;;;10.45;68.45;99141.44;5001887;28;97456;-52
2023/10/27 01:04:08;;;;;;;13.83;6.87;;;;;;;10.46;68.24;99142.91;4998589;28;97621;-52
2023/10/27 01:06:35;;;;;;;6.70;5.70;;;;;;;10.46;68.23;99127.06;5000362;28;97269;-52
2023/10/27 01:09:00;;;;;;;13.73;7.07;;;;;;;10.45;68.18;99136.66;5001452;28;97284;-52
2023/10/27 01:11:26;;;;;;;10.80;6.07;;;;;;;10.46;68.40;99121.53;5000635;28;97860;-53
2023/10/27 01:13:52;;;;;;;9.27;6.30;;;;;;;10.45;68.19;99133.16;5001952;28;98283;-52
2023/10/27 01:16:18;;;;;;;9.53;6.50;;;;;;;10.44;68.23;99128.91;4999155;28;96731;-52
2023/10/27 01:18:43;;;;;;;7.70;6.27;;;;;;;10.43;68.41;99122.66;5001196;28;96999;-52
2023/10/27 01:21:08;;;;;;;12.37;7.13;;;;;;;10.44;68.24;99121.34;5000959;28;97689;-52
2023/10/27 01:23:34;;;;;;;9.83;6.37;;;;;;;10.46;68.36;99123.56;4999961;28;110676;-52
2023/10/27 01:25:59;;;;;;;8.10;5.90;;;;;;;10.47;68.21;99127.81;5001455;28;96915;-52
2023/10/27 01:28:24;;;;;;;8.20;6.57;;;;;;;10.48;68.31;99126.50;5001538;28;97139;-52
2023/10/27 01:30:50;;;;;;;10.47;6.90;;;;;;;10.48;68.35;99137.56;4999464;28;99740;-52
2023/10/27 01:33:15;;;;;;;14.83;6.90;;;;;;;10.48;68.27;99127.25;4997711;28;97231;-52
2023/10/27 01:35:40;;;;;;;10.33;7.10;;;;;;;10.50;68.14;99135.00;5001312;28;97162;-52
2023/10/27 01:38:06;;;;;;;8.33;6.10;;;;;;;10.50;68.23;99135.00;4999591;28;99204;-52
2023/10/27 01:40:31;;;;;;;11.57;7.00;;;;;;;10.51;68.27;99130.94;4999889;28;110267;-52
2023/10/27 01:42:56;;;;;;;12.27;7.00;;;;;;;10.51;68.27;99130.94;5001310;28;101405;-52
2023/10/27 01:45:21;;;;;;;10.50;6.80;;;;;;;10.50;68.46;99123.94;4998314;28;97107;-52
2023/10/27 01:47:47;;;;;;;11.07;7.13;;;;;;;10.50;68.26;99132.25;4998668;28;97474;-52
2023/10/27 01:50:12;;;;;;;10.73;6.57;;;;;;;10.50;68.19;99129.47;4997692;28;97394;-52
2023/10/27 01:52:37;;;;;;;8.97;6.10;;;;;;;10.50;68.12;99121.91;5000245;28;106697;-52
2023/10/27 01:55:03;;;;;;;14.30;6.70;;;;;;;10.49;68.25;99120.44;5001551;28;97025;-52
2023/10/27 01:57:28;;;;;;;11.30;7.30;;;;;;;10.48;68.29;99123.75;5000175;28;97416;-52
2023/10/27 01:59:53;;;;;;;13.37;7.30;;;;;;;10.45;68.39;99119.34;5000420;28;97287;-52
2023/10/27 02:02:19;;;;;;;19.70;6.80;;;;;;;10.43;68.48;99117.13;4999466;28;99513;-52
2023/10/27 02:04:45;;;;;;;9.87;6.73;;;;;;;10.45;68.35;99116.56;4999725;28;97319;-52
2023/10/27 02:07:10;;;;;;;11.33;7.17;;;;;;;10.44;68.35;99113.06;4998603;28;96793;-52
2023/10/27 02:09:35;;;;;;;8.73;6.93;;;;;;;10.46;68.35;99113.25;5000380;28;97260;-52
2023/10/27 02:12:02;;;;;;;8.80;6.63;;;;;;;10.46;68.25;99110.47;5000070;28;108708;-52
2023/10/27 02:14:28;;;;;;;9.30;6.60;;;;;;;10.47;68.43;99117.50;5001783;28;97136;-52
2023/10/27 02:16:53;;;;;;;10.10;6.40;;;;;;;10.48;68.36;99118.22;5005612;28;98681;-52
2023/10/27 02:19:19;;;;;;;15.13;7.30;;;;;;;10.47;68.27;99120.25;5003710;28;97741;-52
2023/10/27 02:21:45;;;;;;;10.00;6.50;;;;;;;10.48;68.37;99118.22;5003991;28;96636;-52
2023/10/27 02:24:11;;;;;;;10.37;7.77;;;;;;;10.49;68.29;99119.69;5001880;28;97132;-53
2023/10/27 02:26:36;;;;;;;8.60;6.47;;;;;;;10.49;68.19;99119.69;5003173;28;97204;-52
2023/10/27 02:29:02;;;;;;;10.87;7.20;;;;;;;10.47;68.32;99123.03;5004560;28;97974;-52
2023/10/27 02:31:28;;;;;;;9.40;7.40;;;;;;;10.47;68.35;99113.97;5003974;28;97246;-52
2023/10/27 02:33:53;;;;;;;13.20;6.30;;;;;;;10.46;68.13;99115.25;5004398;28;98359;-52
2023/10/27 02:36:19;;;;;;;22.00;6.97;;;;;;;10.44;68.32;99113.06;5000517;28;103188;-52
2023/10/27 02:38:44;;;;;;;9.80;7.07;;;;;;;10.41;68.18;99111.38;5003982;28;97332;-52
2023/10/27 02:41:11;;;;;;;10.00;6.90;;;;;;;10.45;68.40;99120.06;5003829;28;97187;-52
2023/10/27 02:43:38;;;;;;;9.50;6.23;;;;;;;10.47;68.17;99116.75;5001213;28;96854;-52
2023/10/27 02:46:04;;;;;;;9.93;6.60;;;;;;;10.48;68.29;99118.22;5002501;28;97109;-52
2023/10/27 02:48:30;;;;;;;9.60;6.50;;;;;;;10.47;68.30;99109.19;5001935;28;97165;-52
2023/10/27 02:50:55;;;;;;;10.90;7.50;;;;;;;10.47;68.26;99111.22;5004182;28;97014;-52
2023/10/27 02:53:20;;;;;;;8.57;5.87;;;;;;;10.46;68.29;99116.00;5003443;28;97005;-52
2023/10/27 02:55:45;;;;;;;13.50;7.57;;;;;;;10.48;68.21;99112.69;5003731;28;96947;-52
2023/10/27 02:58:11;;;;;;;13.20;7.37;;;;;;;10.49;68.21;99116.94;5002349;28;97058;-52
2023/10/27 03:00:43;;;;;;;14.80;7.67;;;;;;;10.49;68.30;99114.16;5001334;28;98283;-52
2023/10/27 03:03:09;;;;;;;12.50;7.50;;;;;;;10.49;68.31;99116.94;5004453;28;96685;-52
2023/10/27 03:05:35;;;;;;;11.10;7.20;;;;;;;10.49;68.38;99120.44;5001146;28;97397;-52
2023/10/27 03:08:00;;;;;;;14.93;7.30;;;;;;;10.49;68.29;99119.69;5003317;28;96841;-52
2023/10/27 03:10:25;;;;;;;9.23;7.50;;;;;;;10.50;68.28;99124.66;5001643;28;97329;-52
2023/10/27 03:12:51;;;;;;;12.60;8.47;;;;;;;10.52;68.41;99132.44;5003354;28;97198;-52
2023/10/27 03:15:16;;;;;;;16.67;8.33;;;;;;;10.53;68.33;99126.34;5002490;28;97122;-52
2023/10/27 03:17:41;;;;;;;13.50;8.33;;;;;;;10.53;68.31;99117.28;5002965;28;98668;-52
2023/10/27 03:20:08;;;;;;;14.90;8.23;;;;;;;10.53;68.24;99129.09;5003246;28;97075;-52
2023/10/27 03:22:34;;;;;;;14.80;8.17;;;;;;;10.54;68.48;99127.78;5002914;28;96964;-52
2023/10/27 03:25:00;;;;;;;16.97;9.07;;;;;;;10.54;68.26;99127.06;5003651;28;97249;-52
2023/10/27 03:27:25;;;;;;;13.70;8.57;;;;;;;10.54;68.39;99119.50;5000835;28;97363;-52
2023/10/27 03:29:51;;;;;;;25.60;9.67;;;;;;;10.54;68.38;99122.25;5002961;28;98308;-52
2023/10/27 03:32:16;;;;;;;16.60;8.90;;;;;;;10.52;68.35;99115.84;4999642;28;97221;-52
2023/10/27 03:34:43;;;;;;;18.87;10.43;;;;;;;10.51;68.26;99114.34;4997661;28;102953;-52
2023/10/27 03:37:09;;;;;;;25.60;9.40;;;;;;;10.47;68.26;99109.19;4999818;28;97143;-52
2023/10/27 03:39:35;;;;;;;16.37;9.60;;;;;;;10.48;68.47;99112.69;5001419;28;96749;-52
2023/10/27 03:42:00;;;;;;;17.93;8.87;;;;;;;10.45;68.39;99109.03;5002800;28;97409;-52
2023/10/27 03:44:25;;;;;;;22.73;10.20;;;;;;;10.43;68.41;99108.84;5000090;28;96842;-52
2023/10/27 03:46:51;;;;;;;20.00;10.10;;;;;;;10.44;68.50;99107.53;5002365;28;99109;-52
2023/10/27 03:49:16;;;;;;;19.40;10.23;;;;;;;10.42;68.44;99101.06;5002523;28;97167;-52
2023/10/27 03:51:41;;;;;;;21.30;10.40;;;;;;;10.43;68.52;99103.31;4999631;28;101796;-52
2023/10/27 03:54:07;;;;;;;22.60;11.83;;;;;;;10.42;68.43;99101.81;4992031;28;99231;-52
2023/10/27 03:56:33;;;;;;;18.77;10.40;;;;;;;10.43;68.37;99103.31;4998993;28;96937;-52
2023/10/27 03:58:59;;;;;;;21.50;10.13;;;;;;;10.43;68.29;99106.06;4999615;28;97265;-52
2023/10/27 04:01:27;;;;;;;17.40;9.77;;;;;;;10.47;68.56;99122.28;4998545;28;96758;-52
2023/10/27 04:03:53;;;;;;;20.73;11.03;;;;;;;10.46;68.46;99118.78;5001021;28;97191;-52
2023/10/27 04:06:19;;;;;;;20.07;10.93;;;;;;;10.48;68.38;99121.72;5003247;28;97685;-52
2023/10/27 04:08:46;;;;;;;22.03;10.63;;;;;;;10.48;68.37;99118.22;5001824;28;100237;-52
2023/10/27 04:11:12;;;;;;;27.90;12.17;;;;;;;10.48;68.40;99118.94;5002668;28;96859;-52
2023/10/27 04:13:37;;;;;;;22.07;11.73;;;;;;;10.48;68.32;99123.75;5001236;28;97290;-53
2023/10/27 04:16:03;;;;;;;24.43;13.00;;;;;;;10.48;68.41;99126.50;4997166;28;97372;-52
2023/10/27 04:18:28;;;;;;;23.40;12.83;;;;;;;10.46;68.41;99131.84;4998603;28;97048;-52
2023/10/27 04:20:54;;;;;;;24.47;12.80;;;;;;;10.46;68.59;99126.31;4999121;28;96926;-52
2023/10/27 04:23:19;;;;;;;25.77;12.87;;;;;;;10.45;68.44;99119.34;5002016;28;97360;-52
2023/10/27 04:25:44;;;;;;;26.17;12.97;;;;;;;10.45;68.51;99117.31;4999692;28;97189;-52
2023/10/27 04:28:10;;;;;;;27.70;11.83;;;;;;;10.45;68.39;99130.38;5000064;28;97211;-52
2023/10/27 04:30:36;;;;;;;28.93;13.00;;;;;;;10.46;68.26;99120.78;5000155;28;97005;-52
2023/10/27 04:33:04;;;;;;;29.97;12.87;;;;;;;10.45;68.25;99111.03;5000205;28;97021;-52
2023/10/27 04:35:30;;;;;;;25.77;12.80;;;;;;;10.45;68.26;99099.97;5001068;28;96776;-52
2023/10/27 04:37:56;;;;;;;34.97;12.90;;;;;;;10.44;68.32;99109.56;5000315;28;97087;-52
2023/10/27 04:40:22;;;;;;;24.80;11.47;;;;;;;10.43;68.26;99119.88;5002407;28;97278;-52
2023/10/27 04:42:48;;;;;;;28.30;12.47;;;;;;;10.40;68.29;99106.41;5001883;28;96906;-52
2023/10/27 04:45:13;;;;;;;25.27;12.90;;;;;;;10.40;68.38;99111.94;5000059;28;97599;-52
2023/10/27 04:47:39;;;;;;;22.00;11.73;;;;;;;10.39;68.24;99110.50;5001096;28;96903;-52
2023/10/27 04:50:05;;;;;;;29.20;12.63;;;;;;;10.38;68.24;99104.22;5002490;28;97058;-52
2023/10/27 04:52:31;;;;;;;22.53;12.47;;;;;;;10.38;68.24;99109.00;5000851;28;97137;-52
2023/10/27 04:54:56;;;;;;;25.33;12.47;;;;;;;10.37;68.19;99099.25;5001370;28;96736;-52
2023/10/27 04:57:22;;;;;;;22.20;11.40;;;;;;;10.35;68.21;99093.50;5001560;28;98339;-52
2023/10/27 04:59:47;;;;;;;23.43;11.97;;;;;;;10.33;68.22;99091.31;5001495;28;97328;-52
2023/10/27 05:02:12;;;;;;;26.53;12.63;;;;;;;10.34;68.21;99089.28;5001207;28;103554;-52
2023/10/27 05:04:38;;;;;;;20.00;11.50;;;;;;;10.31;68.12;99091.13;5000079;28;97166;-52
2023/10/27 05:07:05;;;;;;;20.73;11.87;;;;;;;10.30;68.26;99088.91;5001533;28;96918;-52
2023/10/27 05:09:31;;;;;;;21.17;11.37;;;;;;;10.29;68.16;99087.44;5000921;28;97014;-52
2023/10/27 05:11:56;;;;;;;21.80;11.53;;;;;;;10.27;68.08;99081.72;5002099;28;96735;-52
2023/10/27 05:14:21;;;;;;;22.30;10.27;;;;;;;10.24;68.21;99077.31;5000159;28;97569;-52
2023/10/27 05:16:47;;;;;;;23.13;11.57;;;;;;;10.20;68.17;99076.91;5000726;28;103731;-52
2023/10/27 05:19:13;;;;;;;23.27;12.20;;;;;;;10.17;68.30;99078.03;5001489;28;106871;-52
2023/10/27 05:21:38;;;;;;;24.37;12.20;;;;;;;10.17;68.22;99078.03;5000993;28;96804;-52
2023/10/27 05:24:05;;;;;;;23.37;11.90;;;;;;;10.17;68.22;99083.56;5001206;28;108486;-52
2023/10/27 05:26:30;;;;;;;25.30;12.73;;;;;;;10.18;68.50;99077.47;5000872;28;97131;-52
2023/10/27 05:28:56;;;;;;;21.73;11.87;;;;;;;10.19;68.15;99078.22;4999949;28;97154;-52
2023/10/27 05:31:22;;;;;;;27.53;12.30;;;;;;;10.20;68.23;99080.44;5002064;28;96703;-52
2023/10/27 05:33:47;;;;;;;20.80;11.03;;;;;;;10.19;68.22;99081.72;4998945;28;98646;-52
2023/10/27 05:36:12;;;;;;;21.93;12.37;;;;;;;10.21;68.33;99075.66;4999933;28;97237;-52
2023/10/27 05:38:38;;;;;;;22.70;12.03;;;;;;;10.22;68.24;99090.91;4996447;28;97094;-52
2023/10/27 05:41:03;;;;;;;22.87;12.50;;;;;;;10.22;68.22;99096.44;5000052;28;96854;-52
2023/10/27 05:43:29;;;;;;;21.63;10.30;;;;;;;10.23;68.36;99097.94;5000573;28;97150;-52
2023/10/27 05:45:54;;;;;;;23.47;10.97;;;;;;;10.23;68.19;99095.19;5000112;28;97492;-52
2023/10/27 05:48:20;;;;;;;23.40;11.33;;;;;;;10.24;68.35;99104.94;5001465;28;97184;-52
2023/10/27 05:50:45;;;;;;;26.83;10.47;;;;;;;10.26;68.18;99096.84;5000003;28;97337;-52
2023/10/27 05:53:10;;;;;;;24.20;11.30;;;;;;;10.26;68.01;99107.91;5001445;28;107882;-52
2023/10/27 05:55:36;;;;;;;24.77;11.70;;;;;;;10.26;68.31;99100.31;5000879;28;97119;-52
2023/10/27 05:58:01;;;;;;;22.73;11.53;;;;;;;10.26;68.21;99094.09;5001903;28;96706;-52
2023/10/27 06:00:29;;;;;;;21.33;12.10;;;;;;;10.26;68.39;99094.09;5001487;28;97514;-52
2023/10/27 06:02:54;;;;;;;23.20;11.10;;;;;;;10.26;68.32;99096.84;5000136;28;96831;-52
2023/10/27 06:05:20;;;;;;;26.77;11.60;;;;;;;10.23;68.25;99090.38;4998932;28;101462;-52
2023/10/27 06:07:46;;;;;;;21.40;10.90;;;;;;;10.21;68.34;99090.22;5000249;28;96907;-52
2023/10/27 06:10:11;;;;;;;22.20;11.67;;;;;;;10.20;68.31;99085.94;5001539;28;97009;-52
2023/10/27 06:12:37;;;;;;;21.77;11.63;;;;;;;10.21;68.31;99092.22;5000772;28;98641;-52
2023/10/27 06:15:03;;;;;;;21.37;11.83;;;;;;;10.23;68.42;99092.41;5001582;28;97187;-52
2023/10/27 06:17:29;;;;;;;24.03;11.73;;;;;;;10.24;68.44;99089.09;5001055;28;96704;-52
2023/10/27 06:19:55;;;;;;;21.80;12.20;;;;;;;10.24;68.33;99085.59;4992985;28;97404;-52
2023/10/27 06:22:20;;;;;;;19.67;11.07;;;;;;;10.26;68.31;99094.78;5000236;28;97150;-52
2023/10/27 06:24:45;;;;;;;20.20;10.70;;;;;;;10.28;68.32;99094.25;4999046;28;99930;-52
2023/10/27 06:27:11;;;;;;;23.03;12.50;;;;;;;10.30;68.37;99102.75;5000901;28;97061;-52
2023/10/27 06:29:36;;;;;;;22.67;11.60;;;;;;;10.28;68.25;99094.97;5000480;28;96946;-52
2023/10/27 06:32:03;;;;;;;26.00;12.37;;;;;;;10.28;68.38;99097.03;5000098;28;98632;-52
2023/10/27 06:34:28;;;;;;;19.23;10.40;;;;;;;10.30;68.39;99094.44;4998504;28;97951;-52
2023/10/27 06:36:54;;;;;;;21.43;11.23;;;;;;;10.31;68.35;99090.38;4998903;28;97211;-52
2023/10/27 06:39:19;;;;;;;24.47;10.73;;;;;;;10.33;68.41;99102.38;5001202;28;96728;-52
2023/10/27 06:41:46;;;;;;;20.30;10.60;;;;;;;10.34;68.43;99094.81;5000161;28;97593;-52
2023/10/27 06:44:12;;;;;;;19.57;10.80;;;;;;;10.36;68.42;99100.53;4999525;28;97245;-52
2023/10/27 06:46:37;;;;;;;18.50;10.73;;;;;;;10.35;68.29;99094.25;4999968;28;96764;-52
2023/10/27 06:49:02;;;;;;;20.17;11.10;;;;;;;10.33;68.28;99096.09;4999914;28;97065;-52
2023/10/27 06:51:28;;;;;;;18.47;10.47;;;;;;;10.33;68.56;99099.59;4999381;28;96920;-52
2023/10/27 06:53:53;;;;;;;20.97;11.37;;;;;;;10.34;68.42;99094.81;4999990;28;97027;-52
2023/10/27 06:56:19;;;;;;;20.83;11.20;;;;;;;10.34;68.36;99100.34;4999534;28;97112;-52
2023/10/27 06:58:44;;;;;;;17.60;9.97;;;;;;;10.35;68.69;99105.31;5000084;28;96722;-52
2023/10/27 07:01:10;;;;;;;21.13;12.03;;;;;;;10.37;68.49;99113.06;5000780;28;98078;-52
2023/10/27 07:03:37;;;;;;;19.10;10.10;;;;;;;10.37;68.42;99102.72;5003851;28;96735;-52
2023/10/27 07:06:03;;;;;;;17.47;9.60;;;;;;;10.36;68.51;99111.59;5002889;28;97468;-52
2023/10/27 07:08:32;;;;;;;17.63;9.80;;;;;;;10.34;68.51;99120.44;5003277;28;97591;-52
2023/10/27 07:10:58;;;;;;;16.20;9.90;;;;;;;10.35;68.56;99112.84;5001172;28;96811;-52
2023/10/27 07:13:25;;;;;;;15.27;9.27;;;;;;;10.36;68.70;99122.63;5004076;28;97211;-52
2023/10/27 07:15:50;;;;;;;11.87;8.43;;;;;;;10.37;68.66;99126.88;5002141;28;96715;-52
2023/10/27 07:18:16;;;;;;;18.20;9.43;;;;;;;10.38;68.56;99122.81;5004194;28;97114;-52
2023/10/27 07:20:41;;;;;;;10.60;7.97;;;;;;;10.35;68.58;99126.69;5002496;28;100012;-52
2023/10/27 07:23:06;;;;;;;12.37;7.10;;;;;;;10.36;68.61;99128.16;5002597;28;108983;-53
2023/10/27 07:25:32;;;;;;;9.80;6.60;;;;;;;10.36;68.70;99128.91;5001626;28;97211;-53
2023/10/27 07:27:57;;;;;;;10.50;7.40;;;;;;;10.37;68.60;99129.66;5003058;28;96987;-52
2023/10/27 07:30:22;;;;;;;11.00;7.50;;;;;;;10.37;68.70;99138.66;5003367;28;97474;-53
2023/10/27 07:32:48;;;;;;;9.70;6.30;;;;;;;10.36;68.67;99139.22;5002810;28;100859;-53
2023/10/27 07:35:13;;;;;;;14.13;7.30;;;;;;;10.34;68.71;99137.03;5002847;28;96620;-53
2023/10/27 07:37:39;;;;;;;12.57;7.07;;;;;;;10.34;68.68;99137.03;5003160;28;97581;-52
2023/10/27 07:40:05;;;;;;;11.17;7.40;;;;;;;10.34;68.51;99136.28;5001180;28;97055;-52
2023/10/27 07:42:31;;;;;;;10.77;6.70;;;;;;;10.34;68.76;99136.28;5002566;28;97604;-53
2023/10/27 07:44:57;;;;;;;9.90;6.63;;;;;;;10.33;68.76;99132.78;5002433;28;97051;-53
2023/10/27 07:47:22;;;;;;;12.10;7.33;;;;;;;10.34;68.65;99139.78;5001193;28;98205;-52
2023/10/27 07:49:47;;;;;;;10.50;6.50;;;;;;;10.31;68.75;99126.31;5003321;28;97165;-53
2023/10/27 07:52:13;;;;;;;10.40;7.43;;;;;;;10.31;68.87;99134.59;5002871;28;99062;-53
2023/10/27 07:54:38;;;;;;;9.90;7.17;;;;;;;10.29;68.76;99131.66;5002587;28;96965;-53
2023/10/27 07:57:04;;;;;;;10.33;7.17;;;;;;;10.27;68.78;99137.00;5003308;28;101946;-52
2023/10/27 07:59:30;;;;;;;15.80;6.73;;;;;;;10.29;68.91;99129.63;5002859;28;97810;-52
2023/10/27 08:01:57;;;;;;;11.73;7.47;;;;;;;10.31;68.81;99129.81;5000593;28;97181;-53
2023/10/27 08:04:23;;;;;;;9.10;6.20;;;;;;;10.34;68.81;99131.50;5000463;28;97129;-52
2023/10/27 08:06:49;;;;;;;11.40;7.60;;;;;;;10.30;68.69;99135.91;5002351;28;97089;-52
2023/10/27 08:09:14;;;;;;;9.80;6.63;;;;;;;10.28;68.82;99133.69;5001438;28;97397;-52
2023/10/27 08:11:39;;;;;;;14.00;7.70;;;;;;;10.30;68.86;99120.06;5002629;28;100254;-53
2023/10/27 08:14:05;;;;;;;16.93;7.00;;;;;;;10.34;68.87;99125.97;5001806;28;96951;-52
2023/10/27 08:16:31;;;;;;;11.03;7.50;;;;;;;10.31;68.74;99127.06;5002427;28;98157;-53
2023/10/27 08:18:57;;;;;;;13.10;7.60;;;;;;;10.34;68.71;99134.25;5002614;28;97173;-53
2023/10/27 08:21:23;;;;;;;10.73;7.33;;;;;;;10.37;68.75;99126.88;5002980;28;97411;-52
2023/10/27 08:23:48;;;;;;;10.70;7.20;;;;;;;10.37;68.65;99124.13;5001747;28;96766;-52
2023/10/27 08:26:14;;;;;;;9.70;7.10;;;;;;;10.36;68.75;99130.94;5001680;28;97348;-53
2023/10/27 08:28:39;;;;;;;11.90;7.80;;;;;;;10.37;68.72;99124.13;5001172;28;98700;-53
2023/10/27 08:31:05;;;;;;;10.87;6.93;;;;;;;10.37;68.65;99124.84;5002363;28;97755;-52
2023/10/27 08:33:30;;;;;;;11.13;7.07;;;;;;;10.37;68.66;99132.41;5000403;28;96745;-52
2023/10/27 08:36:06;;;;;;;11.07;6.93;;;;;;;10.34;68.79;99139.03;5000522;28;97210;-52
2023/10/27 08:38:32;;;;;;;14.30;8.30;;;;;;;10.36;68.71;99142.00;5002226;28;96998;-52
2023/10/27 08:40:58;;;;;;;11.47;7.00;;;;;;;10.39;68.68;99133.31;4999691;28;97509;-52
2023/10/27 08:43:23;;;;;;;13.30;8.40;;;;;;;10.39;68.76;99133.31;5002247;28;96657;-52
2023/10/27 08:45:50;;;;;;;12.13;7.73;;;;;;;10.42;68.92;99137.75;5002271;28;97610;-53
2023/10/27 08:48:16;;;;;;;15.60;8.07;;;;;;;10.45;68.79;99141.44;5001185;28;97760;-52
2023/10/27 08:50:41;;;;;;;10.67;7.90;;;;;;;10.48;68.68;99140.31;5002261;28;97099;-52
2023/10/27 08:53:12;;;;;;;15.57;7.37;;;;;;;10.49;68.64;99153.63;5001372;28;97305;-52
2023/10/27 08:55:37;;;;;;;12.47;8.33;;;;;;;10.46;68.73;99140.16;5000334;28;97006;-52
2023/10/27 08:58:03;;;;;;;11.80;7.13;;;;;;;10.49;68.73;99139.06;5000733;28;97714;-53
2023/10/27 09:00:28;;;;;;;14.57;8.20;;;;;;;10.52;68.71;99146.97;5002112;28;96908;-52
2023/10/27 09:02:54;;;;;;;12.17;7.70;;;;;;;10.53;68.71;99148.47;5001227;28;96939;-53
2023/10/27 09:05:19;;;;;;;13.47;7.43;;;;;;;10.54;68.75;99154.72;5001999;28;96796;-52
2023/10/27 09:07:45;;;;;;;17.27;8.07;;;;;;;10.54;68.58;99147.16;5001582;28;97069;-52
2023/10/27 09:10:11;;;;;;;14.43;8.67;;;;;;;10.57;68.67;99153.59;5001010;28;98252;-53
2023/10/27 09:12:38;;;;;;;18.40;8.40;;;;;;;10.57;68.75;99148.06;5000792;28;97289;-52
2023/10/27 09:15:07;;;;;;;14.70;9.07;;;;;;;10.59;68.48;99151.03;5001766;28;97477;-52
2023/10/27 09:17:57;;;;;;;15.17;8.73;;;;;;;10.58;68.75;99150.31;5000410;28;97786;-52
2023/10/27 09:20:25;;;;;;;16.47;9.60;;;;;;;10.60;68.57;99141.44;5001864;28;97515;-52
2023/10/27 09:23:06;;;;;;;14.67;8.73;;;;;;;10.60;68.51;99144.22;5001112;28;97191;-52
2023/10/27 09:25:33;;;;;;;16.60;8.63;;;;;;;10.58;68.62;99153.06;5001333;28;96785;-52
2023/10/27 09:28:05;;;;;;;14.00;8.87;;;;;;;10.59;68.69;99153.78;5000661;28;98053;-52
2023/10/27 09:30:30;;;;;;;20.40;10.30;;;;;;;10.63;68.76;99156.94;5001159;28;96856;-52
2023/10/27 09:33:16;;;;;;;12.97;8.87;;;;;;;10.66;68.72;99150.28;5000174;28;97308;-53
2023/10/27 09:35:43;;;;;;;15.90;9.23;;;;;;;10.70;68.65;99148.63;5001179;28;97054;-52
2023/10/27 09:38:08;;;;;;;18.60;9.70;;;;;;;10.72;68.69;99150.84;4998936;28;97589;-53
2023/10/27 09:40:40;;;;;;;14.60;8.57;;;;;;;10.72;68.55;99148.06;5002199;28;97231;-52
2023/10/27 09:43:21;;;;;;;14.50;9.10;;;;;;;10.72;68.66;99148.06;4998572;28;96779;-53
2023/10/27 09:45:55;;;;;;;16.47;9.70;;;;;;;10.73;68.52;99152.34;5000223;28;97534;-52
2023/10/27 09:48:26;;;;;;;17.00;10.30;;;;;;;10.72;68.45;99139.78;5001124;28;100930;-53
2023/10/27 09:51:10;;;;;;;21.93;10.70;;;;;;;10.69;68.54;99138.13;5000468;28;97641;-53
2023/10/27 09:53:37;;;;;;;15.47;10.20;;;;;;;10.69;68.63;99141.66;5000563;28;97015;-53
2023/10/27 09:56:03;;;;;;;17.80;9.93;;;;;;;10.71;68.74;99141.84;5000813;28;96703;-52
2023/10/27 09:58:34;;;;;;;16.47;10.20;;;;;;;10.75;68.54;99142.19;4991835;28;97717;-53
2023/10/27 10:01:01;;;;;;;18.33;10.63;;;;;;;10.79;68.65;99136.31;5000106;28;97585;-53
2023/10/27 10:03:29;;;;;;;15.70;10.30;;;;;;;10.85;68.70;99145.16;5000550;28;97151;-52
2023/10/27 10:06:20;;;;;;;18.10;11.00;;;;;;;10.88;68.59;99144.03;5000801;28;97279;-53
2023/10/27 10:09:10;;;;;;;20.93;9.80;;;;;;;10.90;68.52;99141.47;5000998;28;97441;-52
2023/10/27 10:11:47;;;;;;;15.00;9.00;;;;;;;10.94;68.55;99144.59;5000064;28;97310;-52
2023/10/27 10:14:40;;;;;;;14.83;9.60;;;;;;;10.95;68.47;99139.81;4999880;28;97043;-52
2023/10/27 10:17:08;;;;;;;14.40;9.10;;;;;;;10.98;68.59;99150.47;4998900;28;97127;-53
2023/10/27 10:19:48;;;;;;;14.70;9.20;;;;;;;11.00;68.38;99144.41;4999224;28;96705;-53
2023/10/27 10:22:40;;;;;;;18.40;10.67;;;;;;;10.97;68.57;99146.25;4998912;28;98456;-53
2023/10/27 10:25:14;;;;;;;14.47;9.40;;;;;;;10.98;68.46;99138.69;4995272;28;97517;-53
2023/10/27 10:28:08;;;;;;;18.93;9.90;;;;;;;10.92;68.54;99138.88;4999992;28;96603;-52
2023/10/27 10:30:35;;;;;;;17.23;10.50;;;;;;;10.96;68.68;99142.00;5000828;28;97385;-53
2023/10/27 10:33:16;;;;;;;13.23;9.00;;;;;;;10.98;68.44;99128.34;5000153;28;97270;-52
2023/10/27 10:35:46;;;;;;;16.00;10.10;;;;;;;11.03;68.62;99141.25;5001003;28;97254;-52
2023/10/27 10:38:37;;;;;;;13.90;9.00;;;;;;;11.06;68.69;99142.94;5002440;28;97059;-52
2023/10/27 10:41:02;;;;;;;14.33;8.97;;;;;;;11.07;68.63;99141.63;5003319;28;97102;-53
2023/10/27 10:43:30;;;;;;;13.90;9.80;;;;;;;11.10;68.50;99137.75;5004095;28;96864;-53
2023/10/27 10:45:59;;;;;;;16.30;10.47;;;;;;;11.12;68.38;99145.50;5004179;28;96743;-53
2023/10/27 10:48:30;;;;;;;13.50;9.77;;;;;;;11.10;68.60;99154.34;5003689;28;98440;-52
2023/10/27 10:51:03;;;;;;;14.30;8.97;;;;;;;11.10;68.53;99131.47;5004868;28;97164;-53
2023/10/27 10:53:30;;;;;;;13.50;8.80;;;;;;;11.11;68.24;99130.91;5002908;28;97097;-53
2023/10/27 10:55:58;;;;;;;14.10;9.87;;;;;;;11.12;68.56;99132.41;5004393;28;96977;-53
2023/10/27 10:58:28;;;;;;;12.30;9.30;;;;;;;11.15;68.32;99138.84;5003303;28;97128;-52
2023/10/27 11:00:56;;;;;;;16.73;9.50;;;;;;;11.15;68.41;99141.63;5003139;28;98737;-53
2023/10/27 11:03:24;;;;;;;14.10;9.33;;;;;;;11.11;68.36;99136.44;5001996;28;97095;-53
2023/10/27 11:05:54;;;;;;;16.47;9.47;;;;;;;11.10;68.36;99137.75;5003936;28;97201;-53
2023/10/27 11:08:38;;;;;;;15.00;9.50;;;;;;;11.10;68.26;99134.97;5003011;28;97565;-53
2023/10/27 11:11:09;;;;;;;13.93;9.27;;;;;;;11.07;68.23;99138.84;5004338;28;97690;-53
2023/10/27 11:13:45;;;;;;;12.73;8.97;;;;;;;11.06;68.39;99137.38;5003542;28;97185;-53
2023/10/27 11:16:17;;;;;;;11.20;8.60;;;;;;;11.09;68.43;99136.25;5003339;28;97180;-53
2023/10/27 11:18:48;;;;;;;15.23;9.47;;;;;;;11.12;68.47;99132.41;5003219;28;96852;-53
2023/10/27 11:21:18;;;;;;;11.70;8.20;;;;;;;11.15;68.19;99122.25;5003395;28;96875;-53
2023/10/27 11:23:44;;;;;;;12.93;8.70;;;;;;;11.12;68.36;99135.16;5003404;28;97293;-53